Thunder radar more information blitzortung!


Radar de pluja more information rain snow radar


Visita la nostra xarxa de llocs de meteo:

Template documentation
and downloads

And another site



No particular awareness of the weather is required.    There are no Weather-warnings

Pagina Historial Weather Underground text

Diari Resum Novembre 3, 2017 Unitats:  Mètric    Imperial   Tant
« Previous Dia
SegĂźent Dia »
Diari Setmana Mensual Anual Personalitzada
  Maxima: Minima: Media:
Temperatura: -17.8 °C -11.3 °C -8.2 °C
Punt de rosada: -17.8 °C -12.1 °C -10.5 °C
Humitat: Humidity % 63 % 77 %
Wind Speed: 0 km/h 0 km/h 7.1 km/h
RĂ fegues de vent: 0 km/h - -
Vent:- - South
Pression baro: 0 hPa 34293.4 hPa -
Precipitacions: 0 mm    
Historical Graphs
 
 
Dades de taula per Novembre 3, 2017
Temps Temperatura Punt de rosada Pression baro Vent Wind Speed RĂ fegues de vent Humitat Rainfall Rate (Hourly)
-17.8 °C -17.8 °C 0 hPa Calm     Humidity % 0 mm
00:01 -10.1 °C -11.7 °C 34462.7 hPa Calm     83 % 0 mm
00:06 -10.1 °C -11.7 °C 34462.7 hPa ENE 3.1 km/h 3.1 km/h 83 % 0 mm
02:50 -11.3 °C -12.1 °C 34428.8 hPa SW 2.6 km/h   91 % 0 mm
03:00 -11.3 °C -12.1 °C 34428.8 hPa Calm   5.1 km/h 91 % 0 mm
03:10 -11.2 °C -11.9 °C 34462.7 hPa SSW 2.6 km/h 2.6 km/h 91 % 0 mm
03:20 -11.1 °C -11.8 °C 34462.7 hPa Calm   2.6 km/h 91 % 0 mm
03:30 -10.9 °C -11.6 °C 34428.8 hPa Calm   2.6 km/h 92 % 0 mm
03:40 -10.7 °C -11.5 °C 34428.8 hPa WSW 5.1 km/h 5.1 km/h 91 % 0 mm
03:50 -10.6 °C -11.3 °C 34428.8 hPa Calm   7.7 km/h 91 % 0 mm
04:00 -10.3 °C -11.2 °C 34428.8 hPa North 5.1 km/h 10.3 km/h 90 % 0 mm
04:10 -10.2 °C -11.2 °C 34428.8 hPa North 5.1 km/h 7.7 km/h 89 % 0 mm
04:20 -10.2 °C -11.2 °C 34428.8 hPa Calm   5.1 km/h 89 % 0 mm
04:30 -10 °C -11.1 °C 34428.8 hPa NNE 5.1 km/h 5.1 km/h 88 % 0 mm
04:40 -9.7 °C -10.9 °C 34428.8 hPa NE 2.6 km/h 5.1 km/h 87 % 0 mm
04:50 -9.3 °C -10.6 °C 34428.8 hPa NE 2.6 km/h 5.1 km/h 86 % 0 mm
10:56 -9.2 °C -10.7 °C 34428.8 hPa ENE 3.1 km/h 3.1 km/h 84 % 0 mm
10:57 -9.2 °C -10.7 °C 34428.8 hPa ENE 3.1 km/h 3.1 km/h 84 % 0 mm
11:02 -9.1 °C -10.6 °C 34428.8 hPa NNE 6.8 km/h 6.8 km/h 84 % 0 mm
11:07 -9 °C -10.5 °C 34428.8 hPa NNE 9 km/h 9 km/h 84 % 0 mm
11:12 -8.9 °C -10.5 °C 34428.8 hPa NNE 6 km/h 6 km/h 83 % 0 mm
11:17 -8.7 °C -10.3 °C 34428.8 hPa ENE 8 km/h 8 km/h 83 % 0 mm
11:22 -8.7 °C -10.4 °C 34428.8 hPa NE 11.9 km/h 11.9 km/h 82 % 0 mm
11:27 -8.6 °C -10.3 °C 34428.8 hPa ENE 6 km/h 6.3 km/h 82 % 0 mm
11:32 -8.5 °C -10.2 °C 34428.8 hPa North 6 km/h 6 km/h 82 % 0 mm
11:37 -8.3 °C -10.3 °C 34395 hPa ENE 9 km/h 9 km/h 80 % 0 mm
11:42 -8.2 °C -10.2 °C 34395 hPa ENE 6 km/h 6 km/h 80 % 0 mm
11:47 -8.3 °C -10.3 °C 34395 hPa ENE 9 km/h 9 km/h 79 % 0 mm
11:52 -8.3 °C -10.3 °C 34395 hPa NE 11.9 km/h 11.9 km/h 79 % 0 mm
11:57 -8.1 °C -10.3 °C 34395 hPa NE 11.1 km/h 11.1 km/h 78 % 0 mm
12:02 -8.2 °C -10.3 °C 34395 hPa NNE 11.9 km/h 11.9 km/h 78 % 0 mm
12:07 -8.1 °C -10.2 °C 34395 hPa NNE 9.3 km/h 9.3 km/h 78 % 0 mm
12:12 -8 °C -10.3 °C 34395 hPa NW 6 km/h   77 % 0 mm
12:17 -7.8 °C -10.1 °C 34395 hPa ENE 9.3 km/h 9.3 km/h 77 % 0 mm
12:22 -7.8 °C -10.2 °C 34395 hPa ESE 9.8 km/h 9.8 km/h 76 % 0 mm
12:27 -7.6 °C -9.9 °C 34395 hPa ENE 9 km/h 9 km/h 77 % 0 mm
12:32 -7.4 °C -9.7 °C 34395 hPa ENE 8 km/h 8 km/h 77 % 0 mm
12:37 -7.3 °C -9.7 °C 34395 hPa NW 6 km/h 6 km/h 76 % 0 mm
12:42 -7.3 °C -9.9 °C 34395 hPa ENE 11.9 km/h 11.9 km/h 74 % 0 mm
12:47 -7.1 °C -9.8 °C 34395 hPa ESE 6 km/h 6 km/h 74 % 0 mm
12:52 -7.1 °C -9.9 °C 34395 hPa SE 9 km/h 9 km/h 73 % 0 mm
12:57 -7 °C -9.8 °C 34395 hPa ESE 7.6 km/h 7.6 km/h 73 % 0 mm
13:02 -7 °C -9.8 °C 34395 hPa NE 6 km/h 6 km/h 73 % 0 mm
13:07 -6.8 °C -9.3 °C 34361.1 hPa SW 6 km/h 6 km/h 75 % 0 mm
13:12 -6.4 °C -9.3 °C 34361.1 hPa West 9 km/h 9 km/h 72 % 0 mm
13:17 -6.4 °C -9.3 °C 34361.1 hPa SSE 11.9 km/h 11.9 km/h 72 % 0 mm
13:22 -6.3 °C -9.3 °C 34361.1 hPa SSW 9 km/h 9 km/h 71 % 0 mm
13:27 -6.2 °C -9.3 °C 34361.1 hPa NW 6 km/h 6 km/h 71 % 0 mm
13:32 -6.2 °C -9.2 °C 34361.1 hPa WSW 9 km/h 9 km/h 71 % 0 mm
13:37 -6.2 °C -9.6 °C 34361.1 hPa SW 9 km/h 9 km/h 68 % 0 mm
13:42 -6.3 °C -9.6 °C 34361.1 hPa WSW 6 km/h 6 km/h 69 % 0 mm
13:47 -6.5 °C -9.9 °C 34361.1 hPa ENE 6 km/h 6 km/h 68 % 0 mm
13:52 -6.6 °C -9.8 °C 34361.1 hPa East 3.1 km/h 3.1 km/h 69 % 0 mm
13:57 -6.6 °C -9.8 °C 34361.1 hPa NNE 6 km/h 6.3 km/h 69 % 0 mm
14:02 -6.3 °C -9.6 °C 34361.1 hPa SW 9 km/h 9 km/h 69 % 0 mm
14:07 -6 °C -9.4 °C 34361.1 hPa WSW 10.3 km/h 10.3 km/h 68 % 0 mm
14:12 -5.9 °C -9.5 °C 34361.1 hPa SW 15 km/h 15 km/h 67 % 0 mm
14:17 -6.1 °C -9.7 °C 34361.1 hPa SW 15 km/h 15 km/h 67 % 0 mm
14:22 -6.2 °C -9.8 °C 34327.3 hPa WSW 11.9 km/h 11.9 km/h 67 % 0 mm
14:23 -6.3 °C -9.8 °C 34327.3 hPa SW 11.9 km/h 11.9 km/h 67 % 0 mm
14:28 -6.3 °C -9.8 °C 34327.3 hPa WSW 4.2 km/h 4.2 km/h 67 % 0 mm
14:33 -5.9 °C -9.6 °C 34327.3 hPa WSW 15 km/h 15 km/h 66 % 0 mm
14:38 -6.1 °C -9.8 °C 34327.3 hPa SW 15.3 km/h 15.3 km/h 66 % 0 mm
14:43 -5.9 °C -9.8 °C 34327.3 hPa WSW 11.9 km/h 11.9 km/h 65 % 0 mm
14:48 -5.8 °C -9.8 °C 34327.3 hPa SSW 20.9 km/h 20.9 km/h 64 % 0 mm
14:53 -5.9 °C -9.8 °C 34327.3 hPa WSW 15 km/h 15 km/h 64 % 0 mm
14:58 -5.9 °C -9.6 °C 34327.3 hPa WSW 14 km/h 14 km/h 66 % 0 mm
15:03 -5.9 °C -9.8 °C 34327.3 hPa SSW 11.9 km/h 11.9 km/h 65 % 0 mm
15:08 -5.8 °C -9.6 °C 34327.3 hPa WSW 17.9 km/h 17.9 km/h 65 % 0 mm
15:13 -5.8 °C -9.6 °C 34327.3 hPa SSW 9 km/h 9 km/h 65 % 0 mm
15:18 -5.6 °C -9.4 °C 34327.3 hPa SSW 14.5 km/h 14.5 km/h 65 % 0 mm
15:23 -5.7 °C -9.7 °C 34327.3 hPa SSW 17.9 km/h 17.9 km/h 64 % 0 mm
15:28 -5.8 °C -9.8 °C 34327.3 hPa SW 16.1 km/h 16.1 km/h 64 % 0 mm
15:33 -5.8 °C -9.8 °C 34327.3 hPa SW 9 km/h 9 km/h 64 % 0 mm
15:38 -5.8 °C -9.7 °C 34327.3 hPa WSW 15.6 km/h 15.6 km/h 64 % 0 mm
15:43 -5.7 °C -9.6 °C 34327.3 hPa SW 15 km/h 15 km/h 64 % 0 mm
15:48 -5.6 °C -9.7 °C 34327.3 hPa SW 15 km/h 15 km/h 63 % 0 mm
15:53 -5.7 °C -9.8 °C 34293.4 hPa SSW 17.9 km/h 17.9 km/h 63 % 0 mm
15:58 -5.9 °C -10.1 °C 34293.4 hPa West 20.9 km/h 20.9 km/h 63 % 0 mm
16:03 -6 °C -9.9 °C 34293.4 hPa SW 15 km/h 15 km/h 64 % 0 mm
16:08 -5.9 °C -9.8 °C 34327.3 hPa SW 11.9 km/h 11.9 km/h 64 % 0 mm
16:13 -5.8 °C -9.8 °C 34327.3 hPa South 11.9 km/h 11.9 km/h 64 % 0 mm
16:18 -5.9 °C -9.9 °C 34327.3 hPa WSW 15 km/h 15 km/h 64 % 0 mm
16:23 -5.9 °C -9.8 °C 34327.3 hPa SSE 15 km/h 15 km/h 65 % 0 mm
16:28 -6.1 °C -10.1 °C 34327.3 hPa SW 15 km/h 15 km/h 64 % 0 mm
16:33 -6.2 °C -9.9 °C 34327.3 hPa West 11.9 km/h 11.9 km/h 65 % 0 mm
16:38 -6.2 °C -10 °C 34327.3 hPa SW 9 km/h 9 km/h 65 % 0 mm
16:43 -6.3 °C -9.9 °C 34327.3 hPa WSW 9 km/h 9 km/h 66 % 0 mm
16:48 -6.6 °C -10.2 °C 34327.3 hPa South 17.9 km/h 17.9 km/h 66 % 0 mm
16:54 -6.8 °C -10.3 °C 34327.3 hPa SW 9 km/h 12.2 km/h 67 % 0 mm
16:59 -6.9 °C -10.4 °C 34327.3 hPa WSW 12.7 km/h 14 km/h 67 % 0 mm
17:04 -7.1 °C -10.4 °C 34327.3 hPa West 15 km/h 15 km/h 68 % 0 mm
17:09 -7.2 °C -10.4 °C 34293.4 hPa SSW 11.9 km/h 11.9 km/h 69 % 0 mm
17:14 -7.2 °C -10.4 °C 34293.4 hPa South 9 km/h 9 km/h 69 % 0 mm
17:19 -7.3 °C -10.3 °C 34293.4 hPa SSW 14.5 km/h 14.5 km/h 71 % 0 mm
17:24 -7.4 °C -10.4 °C 34327.3 hPa WSW 15 km/h 15 km/h 71 % 0 mm
17:29 -7.5 °C -10.4 °C 34327.3 hPa SW 19.6 km/h 19.6 km/h 71 % 0 mm
17:34 -7.6 °C -10.4 °C 34327.3 hPa WSW 17.9 km/h 17.9 km/h 72 % 0 mm
17:39 -7.7 °C -10.5 °C 34327.3 hPa SSW 10.3 km/h 10.3 km/h 72 % 0 mm
17:44 -7.7 °C -10.6 °C 34327.3 hPa SW 15 km/h 15 km/h 72 % 0 mm
17:49 -7.8 °C -10.5 °C 34327.3 hPa WSW 17.9 km/h 17.9 km/h 73 % 0 mm
17:54 -7.8 °C -10.6 °C 34293.4 hPa SW 11.9 km/h 11.9 km/h 73 % 0 mm
17:59 -7.9 °C -10.6 °C 34293.4 hPa WSW 11.9 km/h 11.9 km/h 74 % 0 mm
18:04 -8 °C -10.6 °C 34293.4 hPa SSW 9.8 km/h 10.3 km/h 74 % 0 mm
18:09 -8.1 °C -10.7 °C 34327.3 hPa South 15 km/h 15 km/h 74 % 0 mm
18:14 -8.1 °C -10.6 °C 34327.3 hPa WSW 15 km/h 15 km/h 75 % 0 mm
18:19 -8.2 °C -10.7 °C 34327.3 hPa South 16.6 km/h 16.6 km/h 75 % 0 mm
18:24 -8.2 °C -10.6 °C 34327.3 hPa SW 11.9 km/h 11.9 km/h 76 % 0 mm
18:29 -8.3 °C -10.7 °C 34327.3 hPa South 11.9 km/h 11.9 km/h 76 % 0 mm
18:34 -8.3 °C -10.7 °C 34327.3 hPa SW 9 km/h 9 km/h 76 % 0 mm
18:39 -8.4 °C -10.7 °C 34327.3 hPa SW 9 km/h 9 km/h 77 % 0 mm
18:44 -8.4 °C -10.6 °C 34327.3 hPa West 9 km/h 9 km/h 78 % 0 mm
18:49 -8.4 °C -10.6 °C 34327.3 hPa SW 6 km/h   78 % 0 mm
18:54 -8.5 °C -10.7 °C 34327.3 hPa SW 9 km/h 9 km/h 78 % 0 mm
18:59 -8.6 °C -10.7 °C 34327.3 hPa WSW 6 km/h 6 km/h 78 % 0 mm
19:05 -8.6 °C -10.7 °C 34327.3 hPa SW 6 km/h 6 km/h 79 % 0 mm
19:10 -8.6 °C -10.7 °C 34327.3 hPa SW 6 km/h 6 km/h 79 % 0 mm
19:15 -8.7 °C -10.7 °C 34327.3 hPa WSW 6 km/h 6 km/h 79 % 0 mm
19:20 -8.7 °C -10.7 °C 34327.3 hPa SW 6 km/h 6 km/h 79 % 0 mm
19:25 -8.7 °C -10.7 °C 34361.1 hPa SW 6 km/h 6 km/h 79 % 0 mm
19:30 -8.8 °C -10.7 °C 34361.1 hPa SW 9 km/h 9 km/h 80 % 0 mm
19:35 -8.8 °C -10.7 °C 34361.1 hPa West 6 km/h 6 km/h 80 % 0 mm
19:40 -8.8 °C -10.7 °C 34327.3 hPa SW 2.6 km/h 7.7 km/h 80 % 0 mm
19:45 -8.8 °C -10.7 °C 34327.3 hPa West 6 km/h 6 km/h 80 % 0 mm
19:50 -8.8 °C -10.7 °C 34327.3 hPa SW 5.1 km/h 5.1 km/h 81 % 0 mm
19:55 -8.8 °C -10.7 °C 34327.3 hPa WSW 3.1 km/h   81 % 0 mm
20:00 -8.8 °C -10.7 °C 34327.3 hPa Calm   5.1 km/h 81 % 0 mm
20:05 -8.9 °C -10.7 °C 34327.3 hPa Calm   2.6 km/h 81 % 0 mm
20:10 -8.9 °C -10.6 °C 34361.1 hPa Calm     82 % 0 mm
20:15 -8.9 °C -10.7 °C 34361.1 hPa Calm     82 % 0 mm
20:20 -8.9 °C -10.7 °C 34361.1 hPa NNW 4.2 km/h 4.2 km/h 82 % 0 mm
20:25 -8.9 °C -10.7 °C 34361.1 hPa Calm   5.1 km/h 82 % 0 mm
20:30 -8.9 °C -10.7 °C 34361.1 hPa Calm     82 % 0 mm
20:35 -9 °C -10.7 °C 34361.1 hPa Calm     82 % 0 mm
20:40 -9 °C -10.7 °C 34361.1 hPa NW 2.3 km/h   82 % 0 mm
20:45 -9 °C -10.6 °C 34361.1 hPa Calm     83 % 0 mm
20:50 -9.1 °C -10.7 °C 34361.1 hPa Calm     83 % 0 mm
20:55 -9.2 °C -10.8 °C 34361.1 hPa NW 3.1 km/h   83 % 0 mm
21:00 -9.2 °C -10.8 °C 34361.1 hPa Calm     83 % 0 mm
21:05 -9.2 °C -10.8 °C 34361.1 hPa Calm     83 % 0 mm
21:10 -9.2 °C -10.8 °C 34361.1 hPa Calm     83 % 0 mm
21:15 -9.3 °C -10.9 °C 34361.1 hPa Calm     83 % 0 mm
21:20 -9.3 °C -10.8 °C 34361.1 hPa Calm     84 % 0 mm
21:25 -9.3 °C -10.8 °C 34361.1 hPa Calm   2.6 km/h 84 % 0 mm
21:30 -9.3 °C -10.9 °C 34361.1 hPa WNW 2.6 km/h 5.1 km/h 83 % 0 mm
21:35 -9.3 °C -10.9 °C 34361.1 hPa Calm     83 % 0 mm
21:40 -9.3 °C -10.8 °C 34361.1 hPa Calm     84 % 0 mm
21:45 -9.3 °C -10.8 °C 34361.1 hPa Calm     84 % 0 mm
21:50 -9.3 °C -10.8 °C 34361.1 hPa Calm     84 % 0 mm
21:55 -9.3 °C -10.8 °C 34361.1 hPa WNW 3.1 km/h 3.1 km/h 84 % 0 mm
22:00 -9.3 °C -10.8 °C 34361.1 hPa West 6 km/h 6 km/h 84 % 0 mm
22:05 -9.3 °C -10.8 °C 34361.1 hPa Calm   2.6 km/h 84 % 0 mm
22:10 -9.3 °C -10.8 °C 34361.1 hPa Calm     84 % 0 mm
22:15 -9.4 °C -10.9 °C 34361.1 hPa Calm     84 % 0 mm
22:20 -9.3 °C -10.8 °C 34361.1 hPa Calm     84 % 0 mm
22:25 -9.3 °C -10.8 °C 34361.1 hPa Calm     84 % 0 mm
22:30 -9.3 °C -10.8 °C 34361.1 hPa Calm     84 % 0 mm
22:35 -9.3 °C -10.8 °C 34361.1 hPa Calm     84 % 0 mm
22:40 -9.4 °C -10.9 °C 34361.1 hPa Calm     84 % 0 mm
22:45 -9.4 °C -10.9 °C 34361.1 hPa Calm     84 % 0 mm
22:50 -9.6 °C -11.1 °C 34361.1 hPa North 2.6 km/h 5.1 km/h 84 % 0 mm
22:55 -9.7 °C -11.2 °C 34327.3 hPa Calm   2.6 km/h 84 % 0 mm
23:00 -9.7 °C -11.1 °C 34327.3 hPa Calm     85 % 0 mm
23:05 -9.8 °C -11.2 °C 34327.3 hPa Calm     85 % 0 mm
23:10 -9.8 °C -11.2 °C 34361.1 hPa Calm     85 % 0 mm
23:15 -9.9 °C -11.3 °C 34361.1 hPa Calm     85 % 0 mm
23:20 -9.9 °C -11.3 °C 34361.1 hPa Calm     85 % 0 mm
23:25 -9.8 °C -11.2 °C 34361.1 hPa Calm     85 % 0 mm
23:30 -9.8 °C -11.1 °C 34361.1 hPa Calm     86 % 0 mm
23:35 -9.9 °C -11.2 °C 34361.1 hPa Calm     86 % 0 mm
23:40 -9.9 °C -11.2 °C 34361.1 hPa Calm     86 % 0 mm
23:45 -9.9 °C -11.2 °C 34361.1 hPa Calm     86 % 0 mm
23:50 -10 °C -11.3 °C 34361.1 hPa NNE 3.1 km/h 3.7 km/h 86 % 0 mm
23:55 -10 °C -11.2 °C 34361.1 hPa NNE 3.7 km/h 3.7 km/h 87 % 0 mm
Meteo Sesrovires
Elogis d' Weather Underground - 3.5 mb

Guio original per  Jim McMurry - jmcmurry@mwt.net Adaptat per a la plantilla per  Wim van der Kuil - Leuven-Template.eu

Trobareu la nostra informacio del temps tambe a:

Weather Underground

AWEKAS